createdAt,value
2023-03-24T00:01:36.163Z,2.07
2023-03-24T00:04:04.548Z,2.00
2023-03-24T00:06:34.700Z,1.87
2023-03-24T00:09:04.051Z,1.70
2023-03-24T00:11:34.978Z,1.97
2023-03-24T00:14:03.242Z,2.10
2023-03-24T00:16:34.694Z,1.83
2023-03-24T00:19:02.732Z,1.93
2023-03-24T00:21:32.540Z,2.20
2023-03-24T00:24:02.397Z,2.03
2023-03-24T00:26:30.498Z,1.70
2023-03-24T00:28:58.748Z,2.20
2023-03-24T00:31:28.923Z,2.03
2023-03-24T00:33:56.985Z,1.87
2023-03-24T00:36:29.271Z,1.73
2023-03-24T00:38:57.928Z,1.70
2023-03-24T00:41:28.896Z,2.00
2023-03-24T00:44:00.048Z,1.87
2023-03-24T00:46:28.953Z,1.90
2023-03-24T00:49:03.128Z,2.00
2023-03-24T00:51:35.313Z,2.43
2023-03-24T00:54:03.912Z,1.90
2023-03-24T00:56:37.781Z,1.80
2023-03-24T00:59:10.313Z,1.90
2023-03-24T01:01:41.281Z,1.60
2023-03-24T01:04:10.479Z,2.17
2023-03-24T01:06:39.904Z,2.20
2023-03-24T01:09:10.602Z,1.83
2023-03-24T01:11:42.146Z,1.97
2023-03-24T01:14:11.906Z,1.70
2023-03-24T01:16:41.052Z,1.60
2023-03-24T01:19:10.516Z,1.60
2023-03-24T01:21:40.108Z,2.07
2023-03-24T01:24:08.796Z,2.00
2023-03-24T01:26:37.089Z,1.77
2023-03-24T01:29:07.369Z,2.07
2023-03-24T01:31:36.493Z,1.90
2023-03-24T01:34:04.990Z,2.00
2023-03-24T01:36:33.236Z,1.60
2023-03-24T01:39:01.490Z,1.97
2023-03-24T01:41:35.818Z,1.87
2023-03-24T01:44:35.905Z,2.10
2023-03-24T01:47:08.572Z,1.80
2023-03-24T01:49:39.510Z,2.43
2023-03-24T01:52:14.640Z,1.97
2023-03-24T01:54:47.160Z,1.70
2023-03-24T01:57:21.441Z,1.90
2023-03-24T01:59:56.104Z,1.80
2023-03-24T02:02:49.611Z,2.07
2023-03-24T02:05:25.976Z,1.73
2023-03-24T02:08:02.876Z,1.70
2023-03-24T02:10:34.906Z,1.90
2023-03-24T02:13:04.527Z,1.80
2023-03-24T02:15:40.237Z,2.00
2023-03-24T02:18:19.010Z,1.83
2023-03-24T02:21:45.837Z,1.70
2023-03-24T02:25:00.819Z,1.60
2023-03-24T02:28:09.431Z,2.00
2023-03-24T02:31:10.090Z,1.70
2023-03-24T02:34:37.154Z,1.80
2023-03-24T02:37:56.127Z,2.00
2023-03-24T02:40:35.559Z,1.80
2023-03-24T02:43:20.651Z,1.83
2023-03-24T02:46:05.762Z,1.60
2023-03-24T02:48:38.364Z,2.30
2023-03-24T02:51:14.293Z,2.23
2023-03-24T02:53:56.320Z,2.20
2023-03-24T02:56:37.717Z,1.60
2023-03-24T02:59:24.491Z,1.40
2023-03-24T03:02:03.416Z,1.67
2023-03-24T03:04:46.257Z,1.70
2023-03-24T03:07:16.847Z,1.47
2023-03-24T03:09:52.782Z,1.80
2023-03-24T03:12:26.376Z,2.00
2023-03-24T03:15:01.079Z,1.90
2023-03-24T03:17:39.667Z,1.80
2023-03-24T03:20:14.071Z,2.00
2023-03-24T03:22:49.542Z,1.60
2023-03-24T03:25:23.825Z,1.60
2023-03-24T03:27:56.690Z,1.77
2023-03-24T03:30:31.071Z,1.90
2023-03-24T03:33:07.644Z,2.03
2023-03-24T03:35:42.879Z,1.70
2023-03-24T03:38:19.409Z,1.60
2023-03-24T03:40:54.269Z,2.23
2023-03-24T03:43:26.601Z,1.77
2023-03-24T03:45:55.185Z,2.17
2023-03-24T03:48:29.709Z,1.90
2023-03-24T03:51:12.463Z,1.77
2023-03-24T03:53:50.957Z,1.80
2023-03-24T03:56:23.390Z,1.80
2023-03-24T03:59:08.520Z,2.00
2023-03-24T04:01:41.871Z,1.63
2023-03-24T04:04:59.585Z,1.80
2023-03-24T04:08:03.650Z,1.50
2023-03-24T04:11:41.059Z,1.70
2023-03-24T04:14:34.653Z,1.90
2023-03-24T04:17:55.055Z,1.70
2023-03-24T04:20:55.998Z,2.00
2023-03-24T04:23:32.184Z,2.10
2023-03-24T04:26:14.758Z,1.70
2023-03-24T04:28:58.094Z,2.23
2023-03-24T04:31:34.093Z,1.83
2023-03-24T04:34:09.416Z,2.00
2023-03-24T04:36:43.242Z,1.93
2023-03-24T04:39:39.175Z,1.83
2023-03-24T04:42:17.909Z,1.80
2023-03-24T04:44:51.311Z,1.97
2023-03-24T04:47:44.029Z,2.13
2023-03-24T04:50:40.382Z,1.87
2023-03-24T04:53:14.747Z,1.83
2023-03-24T04:55:59.313Z,1.87
2023-03-24T05:01:49.477Z,1.40
2023-03-24T05:04:37.318Z,1.67
2023-03-24T05:07:17.278Z,1.50
2023-03-24T05:10:10.982Z,1.90
2023-03-24T05:12:49.433Z,1.40
2023-03-24T05:15:37.341Z,1.83
2023-03-24T05:18:21.552Z,1.27
2023-03-24T05:20:51.526Z,1.57
2023-03-24T05:23:22.018Z,1.60
2023-03-24T05:25:51.356Z,1.53
2023-03-24T05:28:22.696Z,1.97
2023-03-24T05:30:51.054Z,1.57
2023-03-24T05:33:37.900Z,1.60
2023-03-24T05:36:09.290Z,1.53
2023-03-24T05:38:38.055Z,1.50
2023-03-24T05:41:07.223Z,1.60
2023-03-24T05:43:41.867Z,1.90
2023-03-24T05:46:12.812Z,1.43
2023-03-24T05:48:41.926Z,1.70
2023-03-24T05:51:15.003Z,2.03
2023-03-24T05:53:43.502Z,1.77
2023-03-24T05:56:19.838Z,1.80
2023-03-24T05:59:02.946Z,1.63
2023-03-24T06:01:58.540Z,1.60
2023-03-24T06:04:36.828Z,1.57
2023-03-24T06:07:14.315Z,3.73
2023-03-24T06:09:47.583Z,3.20
2023-03-24T06:12:16.892Z,3.47
2023-03-24T06:14:57.876Z,2.20
2023-03-24T06:17:28.843Z,3.20
2023-03-24T06:20:04.342Z,3.00
2023-03-24T06:23:02.569Z,2.70
2023-03-24T06:25:37.984Z,1.50
2023-03-24T06:28:16.644Z,2.10
2023-03-24T06:30:48.857Z,1.73
2023-03-24T06:33:25.837Z,1.87
2023-03-24T06:35:55.517Z,1.83
2023-03-24T06:38:25.073Z,1.80
2023-03-24T06:40:53.297Z,1.90
2023-03-24T06:43:21.474Z,1.80
2023-03-24T06:45:50.881Z,1.60
2023-03-24T06:48:22.840Z,2.00
2023-03-24T06:50:53.529Z,2.40
2023-03-24T06:53:22.431Z,1.43
2023-03-24T06:55:52.497Z,2.07
2023-03-24T06:58:22.931Z,2.07
2023-03-24T07:01:20.284Z,1.73
2023-03-24T07:04:01.213Z,1.40
2023-03-24T07:06:50.587Z,1.10
2023-03-24T07:09:25.998Z,1.20
2023-03-24T07:11:55.392Z,1.60
2023-03-24T07:14:26.090Z,1.30
2023-03-24T07:16:55.100Z,1.70
2023-03-24T07:19:36.284Z,1.60
2023-03-24T07:22:42.672Z,1.40
2023-03-24T07:25:37.533Z,1.50
2023-03-24T07:28:25.582Z,1.50
2023-03-24T07:30:55.388Z,2.10
2023-03-24T07:33:25.136Z,1.60
2023-03-24T07:35:57.132Z,1.83
2023-03-24T07:38:25.678Z,1.67
2023-03-24T07:40:59.376Z,1.83
2023-03-24T07:43:29.585Z,1.43
2023-03-24T07:46:18.682Z,1.80
2023-03-24T07:48:49.035Z,1.70
2023-03-24T07:51:20.482Z,1.60
2023-03-24T07:53:54.983Z,1.60
2023-03-24T07:56:31.013Z,1.60
2023-03-24T07:59:02.958Z,1.70
2023-03-24T08:01:55.382Z,2.20
2023-03-24T08:04:39.856Z,1.60
2023-03-24T08:07:28.312Z,1.73
2023-03-24T08:09:56.577Z,1.70
2023-03-24T08:12:24.751Z,1.70
2023-03-24T08:14:55.295Z,1.63
2023-03-24T08:17:23.448Z,1.70
2023-03-24T08:19:59.715Z,1.60
2023-03-24T08:22:28.565Z,1.60
2023-03-24T08:24:56.574Z,1.43
2023-03-24T08:27:24.672Z,1.37
2023-03-24T08:29:54.043Z,1.53
2023-03-24T08:32:22.131Z,1.87
2023-03-24T08:34:50.280Z,1.53
2023-03-24T08:37:18.365Z,1.60
2023-03-24T08:39:46.800Z,2.07
2023-03-24T08:42:14.987Z,1.70
2023-03-24T08:44:43.217Z,1.70
2023-03-24T08:47:12.985Z,1.70
2023-03-24T08:49:41.066Z,1.70
2023-03-24T08:52:09.275Z,1.60
2023-03-24T08:54:37.807Z,1.40
2023-03-24T08:57:06.400Z,1.37
2023-03-24T08:59:34.557Z,1.43
2023-03-24T09:02:03.281Z,1.40
2023-03-24T09:04:32.818Z,1.37
2023-03-24T09:07:02.947Z,1.10
2023-03-24T09:09:31.993Z,1.40
2023-03-24T09:12:00.120Z,1.50
2023-03-24T09:14:28.306Z,1.30
2023-03-24T09:16:56.566Z,1.30
2023-03-24T09:19:24.637Z,1.40
2023-03-24T09:21:54.108Z,1.00
2023-03-24T09:24:22.133Z,1.17
2023-03-24T09:26:50.170Z,1.20
2023-03-24T09:29:18.617Z,1.40
2023-03-24T09:31:46.712Z,1.20
2023-03-24T09:34:14.815Z,1.30
2023-03-24T09:36:42.848Z,1.43
2023-03-24T09:39:12.225Z,1.60
2023-03-24T09:41:41.378Z,1.40
2023-03-24T09:44:24.126Z,1.80
2023-03-24T09:46:58.185Z,2.40
2023-03-24T09:49:31.476Z,2.43
2023-03-24T09:52:06.405Z,2.17
2023-03-24T09:54:45.500Z,1.40
2023-03-24T09:57:23.280Z,1.47
2023-03-24T09:59:51.474Z,1.20
2023-03-24T10:02:23.517Z,1.60
2023-03-24T10:04:51.822Z,1.10
2023-03-24T10:07:27.887Z,1.47
2023-03-24T10:10:01.224Z,1.50
2023-03-24T10:12:37.558Z,1.60
2023-03-24T10:15:49.596Z,1.50
2023-03-24T10:18:30.914Z,1.30
2023-03-24T10:21:07.622Z,1.17
2023-03-24T10:23:41.800Z,1.43
2023-03-24T10:26:27.893Z,1.37
2023-03-24T10:29:14.717Z,1.27
2023-03-24T10:31:46.784Z,1.30
2023-03-24T10:34:15.072Z,1.47
2023-03-24T10:36:43.485Z,1.27
2023-03-24T10:39:20.865Z,1.17
2023-03-24T10:41:54.579Z,1.30
2023-03-24T10:44:24.265Z,1.30
2023-03-24T10:46:57.403Z,1.27
2023-03-24T10:49:26.778Z,1.20
2023-03-24T10:52:03.611Z,1.20
2023-03-24T10:54:33.049Z,1.43
2023-03-24T10:57:16.218Z,1.20
2023-03-24T10:59:55.226Z,1.13
2023-03-24T11:02:26.739Z,1.50
2023-03-24T11:04:59.166Z,1.33
2023-03-24T11:07:34.866Z,1.10
2023-03-24T11:10:08.543Z,1.00
2023-03-24T11:12:40.405Z,1.10
2023-03-24T11:15:22.972Z,1.00
2023-03-24T11:17:58.627Z,1.00
2023-03-24T11:20:32.979Z,1.27
2023-03-24T11:23:05.531Z,1.37
2023-03-24T11:25:36.827Z,1.03
2023-03-24T11:28:10.332Z,1.13
2023-03-24T11:30:48.454Z,0.97
2023-03-24T11:33:35.219Z,0.80
2023-03-24T11:36:30.439Z,1.10
2023-03-24T11:39:02.079Z,1.27
2023-03-24T11:41:30.721Z,0.90
2023-03-24T11:44:18.060Z,0.90
2023-03-24T11:46:50.481Z,0.93
2023-03-24T11:49:23.596Z,1.60
2023-03-24T11:51:55.863Z,1.10
2023-03-24T11:54:31.095Z,1.03
2023-03-24T11:57:05.695Z,1.03
2023-03-24T11:59:43.232Z,1.13
2023-03-24T12:02:26.476Z,0.97
2023-03-24T12:05:13.012Z,1.10
2023-03-24T12:08:02.129Z,0.90
2023-03-24T12:10:45.394Z,1.07
2023-03-24T12:13:31.853Z,1.00
2023-03-24T12:16:29.569Z,0.97
2023-03-24T12:19:28.294Z,1.03
2023-03-24T12:22:08.969Z,0.90
2023-03-24T12:25:09.129Z,0.83
2023-03-24T12:27:50.027Z,0.70
2023-03-24T12:30:26.471Z,0.60
2023-03-24T12:33:29.110Z,0.60
2023-03-24T12:36:31.798Z,0.43
2023-03-24T12:39:21.174Z,0.73
2023-03-24T12:42:08.153Z,0.60
2023-03-24T12:45:16.066Z,0.40
2023-03-24T12:48:04.859Z,0.30
2023-03-24T12:50:49.379Z,0.60
2023-03-24T12:56:16.442Z,0.60
2023-03-24T12:58:50.828Z,0.60
2023-03-24T13:01:29.447Z,0.33
2023-03-24T13:04:07.869Z,0.20
2023-03-24T13:06:44.633Z,0.57
2023-03-24T13:09:25.015Z,0.40
2023-03-24T13:11:59.824Z,0.43
2023-03-24T13:14:33.086Z,0.40
2023-03-24T13:17:15.420Z,0.40
2023-03-24T13:19:44.260Z,0.47
2023-03-24T13:22:19.494Z,0.30
2023-03-24T13:24:49.404Z,0.57
2023-03-24T13:27:23.975Z,0.40
2023-03-24T13:30:14.396Z,0.50
2023-03-24T13:32:48.463Z,0.47
2023-03-24T13:35:32.790Z,0.67
2023-03-24T13:38:33.898Z,0.40
2023-03-24T13:41:11.210Z,0.57
2023-03-24T13:43:49.688Z,0.40
2023-03-24T13:46:18.080Z,0.40
2023-03-24T13:48:51.150Z,0.80
2023-03-24T13:51:23.118Z,0.70
2023-03-24T13:53:59.632Z,0.87
2023-03-24T13:56:35.506Z,0.67
2023-03-24T13:59:24.737Z,0.60
2023-03-24T14:02:42.651Z,1.03
2023-03-24T14:05:13.076Z,0.90
2023-03-24T14:07:48.021Z,0.80
2023-03-24T14:10:42.562Z,0.50
2023-03-24T14:13:33.984Z,0.67
2023-03-24T14:16:37.335Z,0.47
2023-03-24T14:19:24.601Z,0.40
2023-03-24T14:21:58.988Z,0.50
2023-03-24T14:24:30.651Z,0.57
2023-03-24T14:27:00.479Z,0.50
2023-03-24T14:29:48.183Z,1.30
2023-03-24T14:32:21.423Z,0.40
2023-03-24T14:34:57.936Z,0.60
2023-03-24T14:37:28.350Z,0.60
2023-03-24T14:39:58.908Z,0.70
2023-03-24T14:42:45.490Z,0.73
2023-03-24T14:45:43.670Z,0.47
2023-03-24T14:48:42.389Z,1.70
2023-03-24T14:51:36.534Z,2.30
2023-03-24T14:54:08.726Z,1.33
2023-03-24T14:56:41.984Z,1.13
2023-03-24T14:59:26.259Z,1.60
2023-03-24T15:02:05.175Z,0.87
2023-03-24T15:04:39.255Z,0.70
2023-03-24T15:07:07.831Z,0.30
2023-03-24T15:09:38.833Z,0.43
2023-03-24T15:12:07.159Z,0.40
2023-03-24T15:14:38.309Z,0.60
2023-03-24T15:17:19.731Z,0.53
2023-03-24T15:19:52.470Z,0.27
2023-03-24T15:22:21.331Z,0.47
2023-03-24T15:24:51.891Z,0.70
2023-03-24T15:27:27.516Z,0.50
2023-03-24T15:30:00.141Z,0.70
2023-03-24T15:32:32.593Z,0.93
2023-03-24T15:35:06.033Z,4.90
2023-03-24T15:37:40.690Z,2.83
2023-03-24T15:40:40.573Z,7.40
2023-03-24T15:43:21.126Z,5.57
2023-03-24T15:46:04.757Z,2.83
2023-03-24T15:48:39.593Z,0.60
2023-03-24T15:51:11.538Z,0.67
2023-03-24T15:53:44.655Z,0.60
2023-03-24T15:56:21.934Z,0.53
2023-03-24T15:58:53.832Z,0.63
2023-03-24T16:01:31.172Z,0.73
2023-03-24T16:04:02.307Z,0.80
2023-03-24T16:06:35.150Z,0.80
2023-03-24T16:09:08.552Z,0.73
2023-03-24T16:11:38.144Z,0.90
2023-03-24T16:14:22.238Z,0.93
2023-03-24T16:16:55.343Z,0.70
2023-03-24T16:19:24.253Z,0.40
2023-03-24T16:21:52.420Z,0.70
2023-03-24T16:24:20.757Z,0.77
2023-03-24T16:26:50.222Z,0.70
2023-03-24T16:29:21.652Z,1.20
2023-03-24T16:31:51.754Z,0.60
2023-03-24T16:34:21.873Z,0.70
2023-03-24T16:36:51.892Z,0.70
2023-03-24T16:39:22.792Z,0.57
2023-03-24T16:41:52.284Z,0.60
2023-03-24T16:44:21.842Z,0.73
2023-03-24T16:46:53.533Z,0.70
2023-03-24T16:49:23.654Z,1.00
2023-03-24T16:51:52.844Z,0.97
2023-03-24T16:54:21.411Z,0.60
2023-03-24T16:56:51.016Z,0.60
2023-03-24T16:59:19.722Z,0.60
2023-03-24T17:01:48.223Z,0.50
2023-03-24T17:04:19.589Z,0.60
2023-03-24T17:06:52.665Z,0.60
2023-03-24T17:09:21.597Z,0.60
2023-03-24T17:11:54.137Z,0.87
2023-03-24T17:14:22.520Z,1.00
2023-03-24T17:16:52.924Z,1.00
2023-03-24T17:19:24.884Z,1.00
2023-03-24T17:22:00.617Z,1.00
2023-03-24T17:24:29.447Z,0.80
2023-03-24T17:26:58.972Z,1.17
2023-03-24T17:29:27.044Z,1.00
2023-03-24T17:31:55.742Z,0.80
2023-03-24T17:34:23.790Z,0.83
2023-03-24T17:36:52.234Z,0.90
2023-03-24T17:39:21.722Z,1.00
2023-03-24T17:41:49.994Z,1.07
2023-03-24T17:44:19.485Z,1.13
2023-03-24T17:46:47.838Z,1.27
2023-03-24T17:49:15.894Z,1.50
2023-03-24T17:51:43.917Z,1.17
2023-03-24T17:54:13.226Z,1.20
2023-03-24T17:56:41.661Z,1.47
2023-03-24T17:59:10.042Z,2.00
2023-03-24T18:01:40.411Z,2.00
2023-03-24T18:04:09.039Z,3.10
2023-03-24T18:06:41.837Z,2.00
2023-03-24T18:09:10.580Z,1.37
2023-03-24T18:11:39.084Z,1.23
2023-03-24T18:14:09.159Z,1.80
2023-03-24T18:16:40.062Z,1.30
2023-03-24T18:19:08.262Z,1.20
2023-03-24T18:21:37.595Z,1.20
2023-03-24T18:24:06.693Z,1.17
2023-03-24T18:26:36.043Z,1.20
2023-03-24T18:29:05.619Z,1.27
2023-03-24T18:31:34.147Z,1.20
2023-03-24T18:34:04.404Z,1.70
2023-03-24T18:36:32.562Z,1.00
2023-03-24T18:39:04.963Z,0.90
2023-03-24T18:41:36.946Z,0.90
2023-03-24T18:44:08.319Z,1.10
2023-03-24T18:46:38.139Z,1.40
2023-03-24T18:49:08.116Z,1.30
2023-03-24T18:51:36.418Z,1.20
2023-03-24T18:54:05.145Z,1.27
2023-03-24T18:56:33.783Z,1.20
2023-03-24T18:59:01.961Z,1.30
2023-03-24T19:01:30.299Z,1.20
2023-03-24T19:03:58.826Z,1.20
2023-03-24T19:06:30.882Z,1.17
2023-03-24T19:09:00.372Z,1.47
2023-03-24T19:11:28.484Z,1.17
2023-03-24T19:13:57.393Z,1.40
2023-03-24T19:16:25.980Z,1.47
2023-03-24T19:18:54.190Z,1.60
2023-03-24T19:21:22.993Z,1.37
2023-03-24T19:23:53.003Z,1.20
2023-03-24T19:26:21.689Z,1.80
2023-03-24T19:28:50.401Z,1.67
2023-03-24T19:31:20.832Z,1.70
2023-03-24T19:33:51.515Z,1.90
2023-03-24T19:36:19.875Z,1.50
2023-03-24T19:38:47.995Z,1.40
2023-03-24T19:41:18.466Z,1.70
2023-03-24T19:43:46.616Z,2.13
2023-03-24T19:46:16.407Z,3.10
2023-03-24T19:48:44.796Z,1.80
2023-03-24T19:51:13.135Z,1.57
2023-03-24T19:53:41.482Z,1.40
2023-03-24T19:56:11.240Z,1.40
2023-03-24T19:58:40.647Z,1.40
2023-03-24T20:01:08.733Z,1.70
2023-03-24T20:03:37.599Z,1.30
2023-03-24T20:06:12.481Z,1.30
2023-03-24T20:08:41.419Z,1.30
2023-03-24T20:11:11.517Z,1.33
2023-03-24T20:13:41.465Z,1.30
2023-03-24T20:16:09.530Z,1.47
2023-03-24T20:18:38.985Z,1.20
2023-03-24T20:21:08.404Z,1.20
2023-03-24T20:23:36.462Z,1.30
2023-03-24T20:26:04.610Z,1.30
2023-03-24T20:28:32.979Z,1.27
2023-03-24T20:31:04.078Z,1.13
2023-03-24T20:33:32.512Z,1.10
2023-03-24T20:36:01.266Z,1.13
2023-03-24T20:38:29.518Z,1.10
2023-03-24T20:41:01.835Z,1.80
2023-03-24T20:43:30.936Z,1.60
2023-03-24T20:45:59.418Z,1.27
2023-03-24T20:48:29.055Z,1.07
2023-03-24T20:50:57.365Z,0.87
2023-03-24T20:53:27.356Z,1.30
2023-03-24T20:55:59.621Z,0.90
2023-03-24T20:58:28.612Z,1.10
2023-03-24T21:00:56.758Z,1.30
2023-03-24T21:03:25.295Z,1.20
2023-03-24T21:05:54.798Z,1.20
2023-03-24T21:08:22.830Z,1.30
2023-03-24T21:10:50.926Z,1.30
2023-03-24T21:13:21.695Z,1.20
2023-03-24T21:15:50.412Z,1.10
2023-03-24T21:18:19.217Z,1.10
2023-03-24T21:20:54.990Z,1.03
2023-03-24T21:23:25.449Z,1.20
2023-03-24T21:25:53.859Z,1.00
2023-03-24T21:28:21.872Z,1.20
2023-03-24T21:30:50.995Z,0.80
2023-03-24T21:33:19.153Z,1.20
2023-03-24T21:35:47.555Z,1.30
2023-03-24T21:38:16.182Z,1.40
2023-03-24T21:40:46.611Z,1.47
2023-03-24T21:43:14.713Z,1.27
2023-03-24T21:45:46.391Z,1.20
2023-03-24T21:48:16.254Z,1.07
2023-03-24T21:50:45.745Z,0.90
2023-03-24T21:53:15.720Z,0.97
2023-03-24T21:55:52.619Z,1.27
2023-03-24T21:58:20.981Z,1.60
2023-03-24T22:00:52.120Z,1.67
2023-03-24T22:03:21.783Z,1.10
2023-03-24T22:05:50.104Z,1.30
2023-03-24T22:08:23.287Z,1.27
2023-03-24T22:10:58.027Z,1.00
2023-03-24T22:13:27.178Z,1.30
2023-03-24T22:15:56.173Z,1.00
2023-03-24T22:18:24.442Z,0.90
2023-03-24T22:20:56.807Z,1.00
2023-03-24T22:23:24.933Z,1.17
2023-03-24T22:25:54.284Z,0.90
2023-03-24T22:28:22.304Z,1.47
2023-03-24T22:30:50.404Z,1.13
2023-03-24T22:33:18.730Z,0.87
2023-03-24T22:35:46.792Z,1.07
2023-03-24T22:38:15.913Z,1.20
2023-03-24T22:40:44.040Z,1.17
2023-03-24T22:43:14.272Z,1.07
2023-03-24T22:45:47.139Z,1.37
2023-03-24T22:48:15.330Z,1.17
2023-03-24T22:50:43.697Z,0.90
2023-03-24T22:53:11.912Z,1.37
2023-03-24T22:55:41.980Z,1.43
2023-03-24T22:58:10.757Z,1.20
2023-03-24T23:00:42.798Z,1.00
2023-03-24T23:03:36.509Z,1.20
2023-03-24T23:06:05.237Z,1.03
2023-03-24T23:08:37.430Z,0.80
2023-03-24T23:11:08.465Z,0.57
2023-03-24T23:13:36.513Z,0.80
2023-03-24T23:16:10.634Z,0.27
2023-03-24T23:18:39.273Z,0.33
2023-03-24T23:21:10.013Z,0.40
2023-03-24T23:23:39.918Z,0.30
2023-03-24T23:26:26.231Z,0.57
2023-03-24T23:28:57.377Z,0.40
2023-03-24T23:31:28.632Z,0.30
2023-03-24T23:33:58.589Z,0.50
2023-03-24T23:36:28.242Z,0.60
2023-03-24T23:38:58.050Z,0.30
2023-03-24T23:41:26.166Z,0.30
2023-03-24T23:43:55.178Z,0.40
2023-03-24T23:46:24.826Z,0.33
2023-03-24T23:48:54.657Z,0.57
2023-03-24T23:51:22.703Z,0.67
2023-03-24T23:53:51.797Z,0.63
2023-03-24T23:56:21.551Z,0.20
2023-03-24T23:58:49.750Z,0.27
